Atlanta, Georgia
Traffic Map
Current Weather Conditions
Atlanta, Georgia
Few Clouds
Few Clouds
18°
Feels Like: 18°
Wind Chill: 18° Ceiling: Unl
Heat Index: 18° Visibility: 10mi
Dew Point: Wind: 8mph
Humidity: 46% Direction: 270° (W)
Pressure: 30.11in Gusts: 0mph
Raw Report DataKATL 231652Z 27007KT 10SM FEW250 18/06 A3011 RMK AO2 SLP196 T01780061
Traffic Incident Summary
Active as of:
Severity:
Category:
InformationThere was an issue retrieving the traffic information for this location. Please try a different location or try again shortly.
Advertisements
Track Severe Weather on mobile